sensor_id;sensor_type;location;lat;lon;timestamp;temperature;humidity
5176;DHT22;2607;50.934;6.934;2023-07-22T00:00:44;16.40;96.70
5176;DHT22;2607;50.934;6.934;2023-07-22T00:03:11;16.40;96.70
5176;DHT22;2607;50.934;6.934;2023-07-22T00:05:36;16.40;96.80
5176;DHT22;2607;50.934;6.934;2023-07-22T00:08:02;16.30;96.80
5176;DHT22;2607;50.934;6.934;2023-07-22T00:10:27;16.30;96.80
5176;DHT22;2607;50.934;6.934;2023-07-22T00:12:53;16.30;96.80
5176;DHT22;2607;50.934;6.934;2023-07-22T00:15:18;16.30;96.90
5176;DHT22;2607;50.934;6.934;2023-07-22T00:17:46;16.30;96.90
5176;DHT22;2607;50.934;6.934;2023-07-22T00:20:11;16.30;97.00
5176;DHT22;2607;50.934;6.934;2023-07-22T00:22:38;16.20;97.00
5176;DHT22;2607;50.934;6.934;2023-07-22T00:25:09;16.20;97.10
5176;DHT22;2607;50.934;6.934;2023-07-22T00:27:39;16.30;97.30
5176;DHT22;2607;50.934;6.934;2023-07-22T00:30:06;16.20;97.30
5176;DHT22;2607;50.934;6.934;2023-07-22T00:32:32;16.20;97.30
5176;DHT22;2607;50.934;6.934;2023-07-22T00:34:58;16.20;97.40
5176;DHT22;2607;50.934;6.934;2023-07-22T00:37:24;16.20;97.50
5176;DHT22;2607;50.934;6.934;2023-07-22T00:39:50;16.10;97.50
5176;DHT22;2607;50.934;6.934;2023-07-22T00:42:16;16.20;97.60
5176;DHT22;2607;50.934;6.934;2023-07-22T00:44:41;16.10;97.60
5176;DHT22;2607;50.934;6.934;2023-07-22T00:47:08;16.10;97.70
5176;DHT22;2607;50.934;6.934;2023-07-22T00:49:34;16.10;97.70
5176;DHT22;2607;50.934;6.934;2023-07-22T00:52:01;16.10;97.80
5176;DHT22;2607;50.934;6.934;2023-07-22T00:54:28;16.10;97.90
5176;DHT22;2607;50.934;6.934;2023-07-22T00:56:54;16.10;98.00
5176;DHT22;2607;50.934;6.934;2023-07-22T00:59:21;16.00;98.00
5176;DHT22;2607;50.934;6.934;2023-07-22T01:01:47;16.10;98.20
5176;DHT22;2607;50.934;6.934;2023-07-22T01:04:14;16.00;98.10
5176;DHT22;2607;50.934;6.934;2023-07-22T01:06:42;16.00;98.30
5176;DHT22;2607;50.934;6.934;2023-07-22T01:09:09;16.00;98.30
5176;DHT22;2607;50.934;6.934;2023-07-22T01:11:35;16.00;98.40
5176;DHT22;2607;50.934;6.934;2023-07-22T01:14:00;15.90;98.50
5176;DHT22;2607;50.934;6.934;2023-07-22T01:16:27;15.90;98.60
5176;DHT22;2607;50.934;6.934;2023-07-22T01:18:54;16.00;98.80
5176;DHT22;2607;50.934;6.934;2023-07-22T01:21:24;15.90;98.90
5176;DHT22;2607;50.934;6.934;2023-07-22T01:23:50;15.90;99.00
5176;DHT22;2607;50.934;6.934;2023-07-22T01:26:16;15.90;99.20
5176;DHT22;2607;50.934;6.934;2023-07-22T01:28:41;15.90;99.20
5176;DHT22;2607;50.934;6.934;2023-07-22T01:31:07;15.90;99.40
5176;DHT22;2607;50.934;6.934;2023-07-22T01:33:33;15.90;99.50
5176;DHT22;2607;50.934;6.934;2023-07-22T01:35:59;15.90;99.60
5176;DHT22;2607;50.934;6.934;2023-07-22T01:38:25;15.80;99.70
5176;DHT22;2607;50.934;6.934;2023-07-22T01:40:51;15.80;99.80
5176;DHT22;2607;50.934;6.934;2023-07-22T01:43:16;15.80;99.80
5176;DHT22;2607;50.934;6.934;2023-07-22T01:45:42;15.80;99.90
5176;DHT22;2607;50.934;6.934;2023-07-22T01:48:08;15.80;99.90
5176;DHT22;2607;50.934;6.934;2023-07-22T01:50:33;15.80;99.90
5176;DHT22;2607;50.934;6.934;2023-07-22T01:52:59;15.90;99.90
5176;DHT22;2607;50.934;6.934;2023-07-22T01:55:24;15.90;99.90
5176;DHT22;2607;50.934;6.934;2023-07-22T01:57:50;15.90;99.90
5176;DHT22;2607;50.934;6.934;2023-07-22T02:00:16;15.90;99.90
5176;DHT22;2607;50.934;6.934;2023-07-22T02:02:42;16.00;99.90
5176;DHT22;2607;50.934;6.934;2023-07-22T02:05:08;16.00;99.90
5176;DHT22;2607;50.934;6.934;2023-07-22T02:07:37;16.00;99.90
5176;DHT22;2607;50.934;6.934;2023-07-22T02:10:03;16.00;99.90
5176;DHT22;2607;50.934;6.934;2023-07-22T02:12:28;16.00;99.90
5176;DHT22;2607;50.934;6.934;2023-07-22T02:14:54;16.00;99.90
5176;DHT22;2607;50.934;6.934;2023-07-22T02:17:19;16.00;99.90
5176;DHT22;2607;50.934;6.934;2023-07-22T02:19:45;16.00;99.90
5176;DHT22;2607;50.934;6.934;2023-07-22T02:22:11;16.00;99.90
5176;DHT22;2607;50.934;6.934;2023-07-22T02:24:37;16.00;99.90
5176;DHT22;2607;50.934;6.934;2023-07-22T02:27:04;15.90;99.90
5176;DHT22;2607;50.934;6.934;2023-07-22T02:29:29;15.90;99.90
5176;DHT22;2607;50.934;6.934;2023-07-22T02:31:56;15.90;99.90
5176;DHT22;2607;50.934;6.934;2023-07-22T02:34:23;15.90;99.90
5176;DHT22;2607;50.934;6.934;2023-07-22T02:36:48;15.90;99.90
5176;DHT22;2607;50.934;6.934;2023-07-22T02:39:14;15.80;99.90
5176;DHT22;2607;50.934;6.934;2023-07-22T02:41:40;15.90;99.90
5176;DHT22;2607;50.934;6.934;2023-07-22T02:44:05;15.80;99.90
5176;DHT22;2607;50.934;6.934;2023-07-22T02:46:31;15.80;99.90
5176;DHT22;2607;50.934;6.934;2023-07-22T02:48:57;15.80;99.90
5176;DHT22;2607;50.934;6.934;2023-07-22T02:51:24;15.70;99.90
5176;DHT22;2607;50.934;6.934;2023-07-22T02:53:50;15.70;99.90
5176;DHT22;2607;50.934;6.934;2023-07-22T02:56:15;15.70;99.90
5176;DHT22;2607;50.934;6.934;2023-07-22T02:58:41;15.70;99.90
5176;DHT22;2607;50.934;6.934;2023-07-22T03:01:10;15.70;99.90
5176;DHT22;2607;50.934;6.934;2023-07-22T03:03:36;15.70;99.90
5176;DHT22;2607;50.934;6.934;2023-07-22T03:06:02;15.70;99.90
5176;DHT22;2607;50.934;6.934;2023-07-22T03:08:29;15.70;99.90
5176;DHT22;2607;50.934;6.934;2023-07-22T03:10:55;15.70;99.90
5176;DHT22;2607;50.934;6.934;2023-07-22T03:13:20;15.70;99.90
5176;DHT22;2607;50.934;6.934;2023-07-22T03:15:46;15.70;99.90
5176;DHT22;2607;50.934;6.934;2023-07-22T03:18:11;15.70;99.90
5176;DHT22;2607;50.934;6.934;2023-07-22T03:20:37;15.70;99.90
5176;DHT22;2607;50.934;6.934;2023-07-22T03:23:04;15.70;99.90
5176;DHT22;2607;50.934;6.934;2023-07-22T03:25:30;15.70;99.90
5176;DHT22;2607;50.934;6.934;2023-07-22T03:27:55;15.70;99.90
5176;DHT22;2607;50.934;6.934;2023-07-22T03:30:22;15.70;99.90
5176;DHT22;2607;50.934;6.934;2023-07-22T03:32:48;15.70;99.90
5176;DHT22;2607;50.934;6.934;2023-07-22T03:35:19;15.60;99.90
5176;DHT22;2607;50.934;6.934;2023-07-22T03:37:44;15.60;99.90
5176;DHT22;2607;50.934;6.934;2023-07-22T03:40:11;15.60;99.90
5176;DHT22;2607;50.934;6.934;2023-07-22T03:42:54;15.60;99.90
5176;DHT22;2607;50.934;6.934;2023-07-22T03:45:21;15.60;99.90
5176;DHT22;2607;50.934;6.934;2023-07-22T03:47:57;15.60;99.90
5176;DHT22;2607;50.934;6.934;2023-07-22T03:50:23;15.60;99.90
5176;DHT22;2607;50.934;6.934;2023-07-22T03:52:48;15.60;99.90
5176;DHT22;2607;50.934;6.934;2023-07-22T03:55:14;15.60;99.90
5176;DHT22;2607;50.934;6.934;2023-07-22T03:57:40;15.60;99.90
5176;DHT22;2607;50.934;6.934;2023-07-22T04:00:06;15.60;99.90
5176;DHT22;2607;50.934;6.934;2023-07-22T04:02:35;15.50;99.90
5176;DHT22;2607;50.934;6.934;2023-07-22T04:05:00;15.50;99.90
5176;DHT22;2607;50.934;6.934;2023-07-22T04:07:26;15.50;99.90
5176;DHT22;2607;50.934;6.934;2023-07-22T04:09:51;15.50;99.90
5176;DHT22;2607;50.934;6.934;2023-07-22T04:12:17;15.50;99.90
5176;DHT22;2607;50.934;6.934;2023-07-22T04:14:42;15.50;99.90
5176;DHT22;2607;50.934;6.934;2023-07-22T04:17:08;15.50;99.90
5176;DHT22;2607;50.934;6.934;2023-07-22T04:19:33;15.50;99.90
5176;DHT22;2607;50.934;6.934;2023-07-22T04:21:59;15.50;99.90
5176;DHT22;2607;50.934;6.934;2023-07-22T04:24:30;15.50;99.90
5176;DHT22;2607;50.934;6.934;2023-07-22T04:26:56;15.50;99.90
5176;DHT22;2607;50.934;6.934;2023-07-22T04:29:22;15.50;99.90
5176;DHT22;2607;50.934;6.934;2023-07-22T04:31:47;15.50;99.90
5176;DHT22;2607;50.934;6.934;2023-07-22T04:34:13;15.60;99.90
5176;DHT22;2607;50.934;6.934;2023-07-22T04:36:38;15.60;99.90
5176;DHT22;2607;50.934;6.934;2023-07-22T04:39:04;15.60;99.90
5176;DHT22;2607;50.934;6.934;2023-07-22T04:41:35;15.60;99.90
5176;DHT22;2607;50.934;6.934;2023-07-22T04:44:01;15.60;99.90
5176;DHT22;2607;50.934;6.934;2023-07-22T04:46:26;15.70;99.90
5176;DHT22;2607;50.934;6.934;2023-07-22T04:48:55;15.70;99.90
5176;DHT22;2607;50.934;6.934;2023-07-22T04:51:22;15.70;99.90
5176;DHT22;2607;50.934;6.934;2023-07-22T04:53:47;15.70;99.90
5176;DHT22;2607;50.934;6.934;2023-07-22T04:56:13;15.70;99.90
5176;DHT22;2607;50.934;6.934;2023-07-22T04:58:39;15.70;99.90
5176;DHT22;2607;50.934;6.934;2023-07-22T05:01:04;15.70;99.90
5176;DHT22;2607;50.934;6.934;2023-07-22T05:03:30;15.70;99.90
5176;DHT22;2607;50.934;6.934;2023-07-22T05:05:55;15.70;99.90
5176;DHT22;2607;50.934;6.934;2023-07-22T05:08:23;15.70;99.90
5176;DHT22;2607;50.934;6.934;2023-07-22T05:10:48;15.70;99.90
5176;DHT22;2607;50.934;6.934;2023-07-22T05:13:14;15.70;99.90
5176;DHT22;2607;50.934;6.934;2023-07-22T05:15:39;15.70;99.90
5176;DHT22;2607;50.934;6.934;2023-07-22T05:18:05;15.70;99.90
5176;DHT22;2607;50.934;6.934;2023-07-22T05:20:30;15.80;99.90
5176;DHT22;2607;50.934;6.934;2023-07-22T05:22:56;15.80;99.90
5176;DHT22;2607;50.934;6.934;2023-07-22T05:25:22;15.80;99.90
5176;DHT22;2607;50.934;6.934;2023-07-22T05:27:47;15.80;99.90
5176;DHT22;2607;50.934;6.934;2023-07-22T05:30:13;15.80;99.90
5176;DHT22;2607;50.934;6.934;2023-07-22T05:32:38;15.80;99.90
5176;DHT22;2607;50.934;6.934;2023-07-22T05:35:04;15.90;99.90
5176;DHT22;2607;50.934;6.934;2023-07-22T05:37:31;15.90;99.90
5176;DHT22;2607;50.934;6.934;2023-07-22T05:39:57;15.90;99.90
5176;DHT22;2607;50.934;6.934;2023-07-22T05:42:23;15.90;99.90
5176;DHT22;2607;50.934;6.934;2023-07-22T05:44:49;15.90;99.90
5176;DHT22;2607;50.934;6.934;2023-07-22T05:47:14;15.90;99.90
5176;DHT22;2607;50.934;6.934;2023-07-22T05:49:40;16.00;99.90
5176;DHT22;2607;50.934;6.934;2023-07-22T05:52:06;16.00;99.90
5176;DHT22;2607;50.934;6.934;2023-07-22T05:54:31;16.00;99.90
5176;DHT22;2607;50.934;6.934;2023-07-22T05:56:57;16.10;99.90
5176;DHT22;2607;50.934;6.934;2023-07-22T05:59:22;16.10;99.90
5176;DHT22;2607;50.934;6.934;2023-07-22T06:01:48;16.10;99.60
5176;DHT22;2607;50.934;6.934;2023-07-22T06:04:13;16.20;99.60
5176;DHT22;2607;50.934;6.934;2023-07-22T06:06:39;16.20;99.50
5176;DHT22;2607;50.934;6.934;2023-07-22T06:09:05;16.20;99.30
5176;DHT22;2607;50.934;6.934;2023-07-22T06:11:30;16.20;99.20
5176;DHT22;2607;50.934;6.934;2023-07-22T06:13:56;16.20;99.30
5176;DHT22;2607;50.934;6.934;2023-07-22T06:16:22;16.30;99.40
5176;DHT22;2607;50.934;6.934;2023-07-22T06:18:47;16.30;99.40
5176;DHT22;2607;50.934;6.934;2023-07-22T06:21:13;16.30;99.30
5176;DHT22;2607;50.934;6.934;2023-07-22T06:23:39;16.40;99.20
5176;DHT22;2607;50.934;6.934;2023-07-22T06:26:04;16.40;99.10
5176;DHT22;2607;50.934;6.934;2023-07-22T06:28:30;16.40;98.90
5176;DHT22;2607;50.934;6.934;2023-07-22T06:30:55;16.40;98.90
5176;DHT22;2607;50.934;6.934;2023-07-22T06:33:22;16.40;99.00
5176;DHT22;2607;50.934;6.934;2023-07-22T06:35:48;16.50;99.10
5176;DHT22;2607;50.934;6.934;2023-07-22T06:38:13;16.60;99.10
5176;DHT22;2607;50.934;6.934;2023-07-22T06:40:39;16.70;99.00
5176;DHT22;2607;50.934;6.934;2023-07-22T06:43:04;16.80;98.80
5176;DHT22;2607;50.934;6.934;2023-07-22T06:45:32;17.00;98.80
5176;DHT22;2607;50.934;6.934;2023-07-22T06:47:58;17.10;98.00
5176;DHT22;2607;50.934;6.934;2023-07-22T06:50:23;17.10;97.70
5176;DHT22;2607;50.934;6.934;2023-07-22T06:52:49;17.20;97.50
5176;DHT22;2607;50.934;6.934;2023-07-22T06:55:14;17.30;97.30
5176;DHT22;2607;50.934;6.934;2023-07-22T06:57:40;17.40;96.60
5176;DHT22;2607;50.934;6.934;2023-07-22T07:00:06;17.40;96.70
5176;DHT22;2607;50.934;6.934;2023-07-22T07:02:32;17.50;96.70
5176;DHT22;2607;50.934;6.934;2023-07-22T07:04:57;17.50;96.60
5176;DHT22;2607;50.934;6.934;2023-07-22T07:07:23;17.60;96.40
5176;DHT22;2607;50.934;6.934;2023-07-22T07:09:48;17.70;96.40
5176;DHT22;2607;50.934;6.934;2023-07-22T07:12:14;17.80;96.30
5176;DHT22;2607;50.934;6.934;2023-07-22T07:14:40;17.80;95.90
5176;DHT22;2607;50.934;6.934;2023-07-22T07:17:06;17.90;95.90
5176;DHT22;2607;50.934;6.934;2023-07-22T07:19:31;18.00;95.70
5176;DHT22;2607;50.934;6.934;2023-07-22T07:21:57;18.10;95.60
5176;DHT22;2607;50.934;6.934;2023-07-22T07:24:22;18.20;95.60
5176;DHT22;2607;50.934;6.934;2023-07-22T07:26:48;18.30;95.20
5176;DHT22;2607;50.934;6.934;2023-07-22T07:29:13;18.40;94.70
5176;DHT22;2607;50.934;6.934;2023-07-22T07:31:39;18.50;94.50
5176;DHT22;2607;50.934;6.934;2023-07-22T07:34:05;18.60;94.10
5176;DHT22;2607;50.934;6.934;2023-07-22T07:36:34;18.60;93.90
5176;DHT22;2607;50.934;6.934;2023-07-22T07:39:00;18.70;93.80
5176;DHT22;2607;50.934;6.934;2023-07-22T07:41:25;18.80;93.90
5176;DHT22;2607;50.934;6.934;2023-07-22T07:43:51;18.80;93.40
5176;DHT22;2607;50.934;6.934;2023-07-22T07:46:24;18.90;93.40
5176;DHT22;2607;50.934;6.934;2023-07-22T07:48:53;19.00;93.50
5176;DHT22;2607;50.934;6.934;2023-07-22T07:51:20;19.00;93.30
5176;DHT22;2607;50.934;6.934;2023-07-22T07:53:46;19.10;93.40
5176;DHT22;2607;50.934;6.934;2023-07-22T07:56:13;19.10;93.10
5176;DHT22;2607;50.934;6.934;2023-07-22T07:58:39;19.20;93.30
5176;DHT22;2607;50.934;6.934;2023-07-22T08:01:05;19.20;92.90
5176;DHT22;2607;50.934;6.934;2023-07-22T08:03:31;19.20;93.00
5176;DHT22;2607;50.934;6.934;2023-07-22T08:05:56;19.30;93.00
5176;DHT22;2607;50.934;6.934;2023-07-22T08:08:22;19.30;92.80
5176;DHT22;2607;50.934;6.934;2023-07-22T08:11:04;19.30;92.60
5176;DHT22;2607;50.934;6.934;2023-07-22T08:13:30;19.30;92.50
5176;DHT22;2607;50.934;6.934;2023-07-22T08:15:58;19.30;92.70
5176;DHT22;2607;50.934;6.934;2023-07-22T08:18:24;19.30;92.70
5176;DHT22;2607;50.934;6.934;2023-07-22T08:20:51;19.40;92.70
5176;DHT22;2607;50.934;6.934;2023-07-22T08:23:17;19.40;92.40
5176;DHT22;2607;50.934;6.934;2023-07-22T08:25:43;19.40;92.40
5176;DHT22;2607;50.934;6.934;2023-07-22T08:28:08;19.50;92.30
5176;DHT22;2607;50.934;6.934;2023-07-22T08:30:34;19.50;92.30
5176;DHT22;2607;50.934;6.934;2023-07-22T08:33:00;19.50;92.00
5176;DHT22;2607;50.934;6.934;2023-07-22T08:35:26;19.60;91.70
5176;DHT22;2607;50.934;6.934;2023-07-22T08:37:51;19.60;91.70
5176;DHT22;2607;50.934;6.934;2023-07-22T08:40:17;19.60;91.60
5176;DHT22;2607;50.934;6.934;2023-07-22T08:42:45;19.70;91.60
5176;DHT22;2607;50.934;6.934;2023-07-22T08:45:11;19.80;91.20
5176;DHT22;2607;50.934;6.934;2023-07-22T08:47:45;19.80;90.90
5176;DHT22;2607;50.934;6.934;2023-07-22T08:50:15;19.80;90.50
5176;DHT22;2607;50.934;6.934;2023-07-22T08:52:42;19.90;89.70
5176;DHT22;2607;50.934;6.934;2023-07-22T08:55:08;20.00;90.00
5176;DHT22;2607;50.934;6.934;2023-07-22T08:57:36;20.00;90.00
5176;DHT22;2607;50.934;6.934;2023-07-22T09:00:02;20.10;90.00
5176;DHT22;2607;50.934;6.934;2023-07-22T09:02:33;20.10;89.50
5176;DHT22;2607;50.934;6.934;2023-07-22T09:04:59;20.20;89.30
5176;DHT22;2607;50.934;6.934;2023-07-22T09:07:24;20.20;88.60
5176;DHT22;2607;50.934;6.934;2023-07-22T09:09:50;20.30;88.30
5176;DHT22;2607;50.934;6.934;2023-07-22T09:12:17;20.30;88.00
5176;DHT22;2607;50.934;6.934;2023-07-22T09:14:43;20.40;87.60
5176;DHT22;2607;50.934;6.934;2023-07-22T09:17:10;20.50;87.40
5176;DHT22;2607;50.934;6.934;2023-07-22T09:19:35;20.50;87.90
5176;DHT22;2607;50.934;6.934;2023-07-22T09:22:01;20.60;86.30
5176;DHT22;2607;50.934;6.934;2023-07-22T09:24:27;20.70;85.30
5176;DHT22;2607;50.934;6.934;2023-07-22T09:26:57;20.80;85.40
5176;DHT22;2607;50.934;6.934;2023-07-22T09:29:37;20.90;85.30
5176;DHT22;2607;50.934;6.934;2023-07-22T09:32:05;21.00;84.70
5176;DHT22;2607;50.934;6.934;2023-07-22T09:34:30;21.10;83.70
5176;DHT22;2607;50.934;6.934;2023-07-22T09:36:57;21.20;83.30
5176;DHT22;2607;50.934;6.934;2023-07-22T09:39:25;21.20;82.80
5176;DHT22;2607;50.934;6.934;2023-07-22T09:41:51;21.30;82.50
5176;DHT22;2607;50.934;6.934;2023-07-22T09:44:18;21.40;82.20
5176;DHT22;2607;50.934;6.934;2023-07-22T09:46:47;21.50;82.10
5176;DHT22;2607;50.934;6.934;2023-07-22T09:49:13;21.60;81.80
5176;DHT22;2607;50.934;6.934;2023-07-22T09:51:41;21.60;81.50
5176;DHT22;2607;50.934;6.934;2023-07-22T09:54:07;21.70;81.20
5176;DHT22;2607;50.934;6.934;2023-07-22T09:56:43;21.80;81.30
5176;DHT22;2607;50.934;6.934;2023-07-22T09:59:10;21.80;80.80
5176;DHT22;2607;50.934;6.934;2023-07-22T10:01:38;21.80;79.60
5176;DHT22;2607;50.934;6.934;2023-07-22T10:04:05;21.90;79.00
5176;DHT22;2607;50.934;6.934;2023-07-22T10:06:31;21.90;76.80
5176;DHT22;2607;50.934;6.934;2023-07-22T10:09:02;22.00;75.50
5176;DHT22;2607;50.934;6.934;2023-07-22T10:11:28;22.00;74.40
5176;DHT22;2607;50.934;6.934;2023-07-22T10:13:55;22.10;74.50
5176;DHT22;2607;50.934;6.934;2023-07-22T10:16:22;22.20;72.90
5176;DHT22;2607;50.934;6.934;2023-07-22T10:18:49;22.30;70.60
5176;DHT22;2607;50.934;6.934;2023-07-22T10:21:14;22.30;70.10
5176;DHT22;2607;50.934;6.934;2023-07-22T10:23:40;22.30;69.50
5176;DHT22;2607;50.934;6.934;2023-07-22T10:26:06;22.40;69.50
5176;DHT22;2607;50.934;6.934;2023-07-22T10:28:32;22.50;69.50
5176;DHT22;2607;50.934;6.934;2023-07-22T10:30:59;22.60;68.50
5176;DHT22;2607;50.934;6.934;2023-07-22T10:33:26;22.70;68.20
5176;DHT22;2607;50.934;6.934;2023-07-22T10:36:07;22.80;67.30
5176;DHT22;2607;50.934;6.934;2023-07-22T10:38:34;22.90;66.40
5176;DHT22;2607;50.934;6.934;2023-07-22T10:41:00;23.00;66.30
5176;DHT22;2607;50.934;6.934;2023-07-22T10:43:34;23.10;65.90
5176;DHT22;2607;50.934;6.934;2023-07-22T10:46:06;23.10;64.90
5176;DHT22;2607;50.934;6.934;2023-07-22T10:48:37;23.10;65.50
5176;DHT22;2607;50.934;6.934;2023-07-22T10:51:13;23.20;65.70
5176;DHT22;2607;50.934;6.934;2023-07-22T10:53:49;23.20;65.10
5176;DHT22;2607;50.934;6.934;2023-07-22T10:56:19;23.30;64.30
5176;DHT22;2607;50.934;6.934;2023-07-22T11:04:29;23.30;63.60
5176;DHT22;2607;50.934;6.934;2023-07-22T11:06:59;23.30;63.00
5176;DHT22;2607;50.934;6.934;2023-07-22T11:12:08;23.40;62.50
5176;DHT22;2607;50.934;6.934;2023-07-22T11:14:37;23.40;62.80
5176;DHT22;2607;50.934;6.934;2023-07-22T11:17:04;23.40;61.70
5176;DHT22;2607;50.934;6.934;2023-07-22T11:19:30;23.50;61.50
5176;DHT22;2607;50.934;6.934;2023-07-22T11:21:57;23.50;60.50
5176;DHT22;2607;50.934;6.934;2023-07-22T11:24:23;23.50;60.90
5176;DHT22;2607;50.934;6.934;2023-07-22T11:26:50;23.60;61.20
5176;DHT22;2607;50.934;6.934;2023-07-22T11:29:17;23.70;60.60
5176;DHT22;2607;50.934;6.934;2023-07-22T11:31:44;23.60;60.30
5176;DHT22;2607;50.934;6.934;2023-07-22T11:34:15;23.60;60.20
5176;DHT22;2607;50.934;6.934;2023-07-22T11:36:41;23.60;60.20
5176;DHT22;2607;50.934;6.934;2023-07-22T11:39:09;23.60;60.10
5176;DHT22;2607;50.934;6.934;2023-07-22T11:41:37;23.70;60.30
5176;DHT22;2607;50.934;6.934;2023-07-22T11:44:04;23.80;59.40
5176;DHT22;2607;50.934;6.934;2023-07-22T11:47:03;23.90;58.80
5176;DHT22;2607;50.934;6.934;2023-07-22T11:49:33;23.90;59.20
5176;DHT22;2607;50.934;6.934;2023-07-22T11:54:26;24.00;59.50
5176;DHT22;2607;50.934;6.934;2023-07-22T11:56:53;24.10;58.90
5176;DHT22;2607;50.934;6.934;2023-07-22T11:59:35;24.20;58.90
5176;DHT22;2607;50.934;6.934;2023-07-22T12:02:02;24.30;58.90
5176;DHT22;2607;50.934;6.934;2023-07-22T12:04:31;24.40;58.80
5176;DHT22;2607;50.934;6.934;2023-07-22T12:06:56;24.50;58.80
5176;DHT22;2607;50.934;6.934;2023-07-22T12:09:23;24.70;58.00
5176;DHT22;2607;50.934;6.934;2023-07-22T12:11:55;24.80;57.50
5176;DHT22;2607;50.934;6.934;2023-07-22T12:14:22;25.00;56.90
5176;DHT22;2607;50.934;6.934;2023-07-22T12:16:47;25.10;56.40
5176;DHT22;2607;50.934;6.934;2023-07-22T12:19:17;25.20;55.00
5176;DHT22;2607;50.934;6.934;2023-07-22T12:21:43;25.20;54.50
5176;DHT22;2607;50.934;6.934;2023-07-22T12:24:13;25.40;54.70
5176;DHT22;2607;50.934;6.934;2023-07-22T12:26:39;25.60;53.90
5176;DHT22;2607;50.934;6.934;2023-07-22T12:29:05;25.60;53.20
5176;DHT22;2607;50.934;6.934;2023-07-22T12:31:30;25.60;52.30
5176;DHT22;2607;50.934;6.934;2023-07-22T12:33:56;25.70;51.70
5176;DHT22;2607;50.934;6.934;2023-07-22T12:36:21;25.70;51.10
5176;DHT22;2607;50.934;6.934;2023-07-22T12:38:47;25.60;50.80
5176;DHT22;2607;50.934;6.934;2023-07-22T12:41:12;25.70;50.10
5176;DHT22;2607;50.934;6.934;2023-07-22T12:43:38;25.70;50.10
5176;DHT22;2607;50.934;6.934;2023-07-22T12:46:04;25.60;50.30
5176;DHT22;2607;50.934;6.934;2023-07-22T12:48:29;25.60;50.50
5176;DHT22;2607;50.934;6.934;2023-07-22T12:50:55;25.70;50.90
5176;DHT22;2607;50.934;6.934;2023-07-22T12:53:21;25.70;50.50
5176;DHT22;2607;50.934;6.934;2023-07-22T12:55:46;25.70;50.40
5176;DHT22;2607;50.934;6.934;2023-07-22T12:58:13;25.80;49.70
5176;DHT22;2607;50.934;6.934;2023-07-22T13:00:38;25.80;49.90
5176;DHT22;2607;50.934;6.934;2023-07-22T13:03:04;25.80;49.10
5176;DHT22;2607;50.934;6.934;2023-07-22T13:05:30;25.80;49.20
5176;DHT22;2607;50.934;6.934;2023-07-22T13:07:55;25.70;49.00
5176;DHT22;2607;50.934;6.934;2023-07-22T13:10:23;25.70;49.00
5176;DHT22;2607;50.934;6.934;2023-07-22T13:12:50;25.70;49.00
5176;DHT22;2607;50.934;6.934;2023-07-22T13:15:16;25.80;49.00
5176;DHT22;2607;50.934;6.934;2023-07-22T13:17:41;25.80;48.90
5176;DHT22;2607;50.934;6.934;2023-07-22T13:20:07;25.70;49.10
5176;DHT22;2607;50.934;6.934;2023-07-22T13:22:35;25.70;49.40
5176;DHT22;2607;50.934;6.934;2023-07-22T13:25:01;25.70;49.70
5176;DHT22;2607;50.934;6.934;2023-07-22T13:27:26;25.70;49.50
5176;DHT22;2607;50.934;6.934;2023-07-22T13:29:52;25.70;49.50
5176;DHT22;2607;50.934;6.934;2023-07-22T13:32:17;25.70;49.50
5176;DHT22;2607;50.934;6.934;2023-07-22T13:34:43;25.70;49.30
5176;DHT22;2607;50.934;6.934;2023-07-22T13:37:08;25.70;49.40
5176;DHT22;2607;50.934;6.934;2023-07-22T13:39:34;25.70;49.60
5176;DHT22;2607;50.934;6.934;2023-07-22T13:41:59;25.60;49.60
5176;DHT22;2607;50.934;6.934;2023-07-22T13:44:25;25.70;49.70
5176;DHT22;2607;50.934;6.934;2023-07-22T13:46:51;25.60;49.50
5176;DHT22;2607;50.934;6.934;2023-07-22T13:49:16;25.70;49.60
5176;DHT22;2607;50.934;6.934;2023-07-22T13:51:43;25.70;49.60
5176;DHT22;2607;50.934;6.934;2023-07-22T13:54:08;25.70;49.30
5176;DHT22;2607;50.934;6.934;2023-07-22T13:56:34;25.70;49.40
5176;DHT22;2607;50.934;6.934;2023-07-22T13:59:00;25.70;49.70
5176;DHT22;2607;50.934;6.934;2023-07-22T14:01:26;25.80;49.60
5176;DHT22;2607;50.934;6.934;2023-07-22T14:03:53;25.70;50.10
5176;DHT22;2607;50.934;6.934;2023-07-22T14:06:18;25.70;50.10
5176;DHT22;2607;50.934;6.934;2023-07-22T14:08:44;25.80;49.30
5176;DHT22;2607;50.934;6.934;2023-07-22T14:11:10;25.80;49.20
5176;DHT22;2607;50.934;6.934;2023-07-22T14:13:35;25.80;49.50
5176;DHT22;2607;50.934;6.934;2023-07-22T14:16:02;25.80;49.70
5176;DHT22;2607;50.934;6.934;2023-07-22T14:18:28;25.80;49.80
5176;DHT22;2607;50.934;6.934;2023-07-22T14:20:54;25.80;49.70
5176;DHT22;2607;50.934;6.934;2023-07-22T14:23:20;25.90;49.40
5176;DHT22;2607;50.934;6.934;2023-07-22T14:25:46;25.90;49.70
5176;DHT22;2607;50.934;6.934;2023-07-22T14:28:12;25.80;49.70
5176;DHT22;2607;50.934;6.934;2023-07-22T14:30:37;25.80;49.30
5176;DHT22;2607;50.934;6.934;2023-07-22T14:33:03;25.80;49.50
5176;DHT22;2607;50.934;6.934;2023-07-22T14:35:28;25.80;49.20
5176;DHT22;2607;50.934;6.934;2023-07-22T14:37:54;25.70;49.30
5176;DHT22;2607;50.934;6.934;2023-07-22T14:40:19;25.70;49.90
5176;DHT22;2607;50.934;6.934;2023-07-22T14:42:45;25.70;50.30
5176;DHT22;2607;50.934;6.934;2023-07-22T14:45:10;25.50;50.10
5176;DHT22;2607;50.934;6.934;2023-07-22T14:47:36;25.50;50.40
5176;DHT22;2607;50.934;6.934;2023-07-22T14:50:02;25.50;50.50
5176;DHT22;2607;50.934;6.934;2023-07-22T14:52:28;25.40;50.50
5176;DHT22;2607;50.934;6.934;2023-07-22T14:54:53;25.40;50.50
5176;DHT22;2607;50.934;6.934;2023-07-22T14:57:19;25.50;50.80
5176;DHT22;2607;50.934;6.934;2023-07-22T14:59:44;25.50;50.80
5176;DHT22;2607;50.934;6.934;2023-07-22T15:02:10;25.60;49.80
5176;DHT22;2607;50.934;6.934;2023-07-22T15:04:36;25.50;49.50
5176;DHT22;2607;50.934;6.934;2023-07-22T15:07:01;25.40;49.80
5176;DHT22;2607;50.934;6.934;2023-07-22T15:09:27;25.40;50.40
5176;DHT22;2607;50.934;6.934;2023-07-22T15:11:53;25.40;50.50
5176;DHT22;2607;50.934;6.934;2023-07-22T15:14:18;25.40;49.90
5176;DHT22;2607;50.934;6.934;2023-07-22T15:16:44;25.40;49.60
5176;DHT22;2607;50.934;6.934;2023-07-22T15:19:11;25.40;49.70
5176;DHT22;2607;50.934;6.934;2023-07-22T15:21:37;25.40;49.90
5176;DHT22;2607;50.934;6.934;2023-07-22T15:24:02;25.30;50.10
5176;DHT22;2607;50.934;6.934;2023-07-22T15:26:28;25.30;50.50
5176;DHT22;2607;50.934;6.934;2023-07-22T15:28:54;25.30;50.70
5176;DHT22;2607;50.934;6.934;2023-07-22T15:31:20;25.20;50.70
5176;DHT22;2607;50.934;6.934;2023-07-22T15:33:46;25.30;51.00
5176;DHT22;2607;50.934;6.934;2023-07-22T15:36:12;25.30;51.20
5176;DHT22;2607;50.934;6.934;2023-07-22T15:38:38;25.20;51.50
5176;DHT22;2607;50.934;6.934;2023-07-22T15:41:05;25.20;51.50
5176;DHT22;2607;50.934;6.934;2023-07-22T15:43:30;25.20;51.70
5176;DHT22;2607;50.934;6.934;2023-07-22T15:45:57;25.20;52.20
5176;DHT22;2607;50.934;6.934;2023-07-22T15:48:24;25.20;52.80
5176;DHT22;2607;50.934;6.934;2023-07-22T15:50:50;25.20;53.00
5176;DHT22;2607;50.934;6.934;2023-07-22T15:53:15;25.10;53.20
5176;DHT22;2607;50.934;6.934;2023-07-22T15:55:41;25.00;53.50
5176;DHT22;2607;50.934;6.934;2023-07-22T15:58:07;25.00;53.60
5176;DHT22;2607;50.934;6.934;2023-07-22T16:00:33;25.00;53.90
5176;DHT22;2607;50.934;6.934;2023-07-22T16:02:59;24.90;54.40
5176;DHT22;2607;50.934;6.934;2023-07-22T16:05:25;24.90;54.70
5176;DHT22;2607;50.934;6.934;2023-07-22T16:07:50;24.80;55.00